createdAt,value
2022-10-06T00:01:40.709Z,2.45
2022-10-06T00:06:42.430Z,2.67
2022-10-06T00:11:44.294Z,2.58
2022-10-06T00:16:45.855Z,2.53
2022-10-06T00:21:47.452Z,2.72
2022-10-06T00:26:49.000Z,2.72
2022-10-06T00:31:50.603Z,2.63
2022-10-06T00:36:52.115Z,2.97
2022-10-06T00:41:53.704Z,3.05
2022-10-06T00:46:55.339Z,3.17
2022-10-06T00:52:04.323Z,2.85
2022-10-06T00:57:07.196Z,2.88
2022-10-06T01:02:44.657Z,3.20
2022-10-06T01:07:46.409Z,5.87
2022-10-06T01:12:48.303Z,7.38
2022-10-06T01:17:55.300Z,4.55
2022-10-06T01:23:01.975Z,3.33
2022-10-06T01:28:06.284Z,2.65
2022-10-06T01:33:07.983Z,3.53
2022-10-06T01:38:10.002Z,3.00
2022-10-06T01:43:11.764Z,3.00
2022-10-06T01:48:13.580Z,2.78
2022-10-06T01:53:15.833Z,2.60
2022-10-06T01:58:17.779Z,2.95
2022-10-06T02:03:20.050Z,2.78
2022-10-06T02:08:21.602Z,2.53
2022-10-06T02:13:27.908Z,2.33
2022-10-06T02:18:30.001Z,2.65
2022-10-06T02:23:32.916Z,2.83
2022-10-06T02:28:35.427Z,2.53
2022-10-06T02:33:38.879Z,2.53
2022-10-06T02:38:41.662Z,2.83
2022-10-06T02:43:43.760Z,2.92
2022-10-06T02:48:45.350Z,3.00
2022-10-06T02:53:48.702Z,2.63
2022-10-06T02:58:53.311Z,2.20
2022-10-06T03:04:07.353Z,2.50
2022-10-06T03:09:10.480Z,2.67
2022-10-06T03:14:17.755Z,2.70
2022-10-06T03:19:23.159Z,2.47
2022-10-06T03:24:24.845Z,2.70
2022-10-06T03:29:31.008Z,2.85
2022-10-06T03:34:33.047Z,2.75
2022-10-06T03:39:37.022Z,2.50
2022-10-06T03:44:38.754Z,2.90
2022-10-06T03:49:40.518Z,2.85
2022-10-06T03:54:43.597Z,2.53
2022-10-06T03:59:45.808Z,2.92
2022-10-06T04:04:47.523Z,2.72
2022-10-06T04:09:49.194Z,2.35
2022-10-06T04:14:54.363Z,2.75
2022-10-06T04:19:58.347Z,2.50
2022-10-06T04:25:00.438Z,2.60
2022-10-06T04:30:02.175Z,2.72
2022-10-06T04:35:05.211Z,2.75
2022-10-06T04:40:07.780Z,2.78
2022-10-06T04:45:11.284Z,3.25
2022-10-06T04:50:14.609Z,2.78
2022-10-06T04:55:35.037Z,3.22
2022-10-06T05:00:37.509Z,4.28
2022-10-06T05:05:39.237Z,4.47
2022-10-06T05:10:41.899Z,5.13
2022-10-06T05:15:43.769Z,4.75
2022-10-06T05:21:06.789Z,6.40
2022-10-06T05:26:11.267Z,4.50
2022-10-06T05:31:27.751Z,5.20
2022-10-06T05:36:32.673Z,3.50
2022-10-06T05:41:37.379Z,3.03
2022-10-06T05:46:41.238Z,3.22
2022-10-06T05:51:43.871Z,3.65
2022-10-06T05:57:01.129Z,3.22
2022-10-06T06:02:04.815Z,3.08
2022-10-06T06:07:13.863Z,3.00
2022-10-06T06:12:17.832Z,4.18
2022-10-06T06:17:32.151Z,4.38
2022-10-06T06:22:35.810Z,4.07
2022-10-06T06:27:39.129Z,5.75
2022-10-06T06:32:41.421Z,2.92
2022-10-06T06:37:43.381Z,2.50
2022-10-06T06:42:45.045Z,3.35
2022-10-06T06:48:15.483Z,3.22
2022-10-06T06:58:21.236Z,3.00
2022-10-06T07:08:47.016Z,2.10
2022-10-06T07:13:54.174Z,2.55
2022-10-06T07:19:14.619Z,2.17
2022-10-06T07:24:36.772Z,2.42
2022-10-06T07:29:38.764Z,2.97
2022-10-06T07:39:50.724Z,2.60
2022-10-06T07:45:11.211Z,2.67
2022-10-06T07:50:15.329Z,2.88
2022-10-06T07:55:18.232Z,2.72
2022-10-06T08:00:45.663Z,2.40
2022-10-06T08:05:50.128Z,2.78
2022-10-06T08:10:53.914Z,2.38
2022-10-06T08:15:56.499Z,2.58
2022-10-06T08:20:58.376Z,2.50
2022-10-06T08:25:59.883Z,2.33
2022-10-06T08:31:11.507Z,2.30
2022-10-06T08:36:16.656Z,2.20
2022-10-06T08:41:28.055Z,2.00
2022-10-06T08:46:37.046Z,2.85
2022-10-06T08:51:56.441Z,2.60
2022-10-06T08:57:16.562Z,2.40
2022-10-06T09:02:41.635Z,3.00
2022-10-06T09:08:21.947Z,2.97
2022-10-06T09:13:38.402Z,3.15
2022-10-06T09:19:07.122Z,2.88
2022-10-06T09:24:34.814Z,3.10
2022-10-06T09:29:36.380Z,3.42
2022-10-06T09:34:46.127Z,3.38
2022-10-06T09:39:50.737Z,3.10
2022-10-06T09:45:16.388Z,3.22
2022-10-06T09:50:22.787Z,3.22
2022-10-06T09:55:29.621Z,3.53
2022-10-06T10:00:38.478Z,2.42
2022-10-06T10:05:47.840Z,3.03
2022-10-06T10:11:07.811Z,2.33
2022-10-06T10:16:16.413Z,2.30
2022-10-06T10:21:29.665Z,2.05
2022-10-06T10:26:40.114Z,1.73
2022-10-06T10:32:06.053Z,2.45
2022-10-06T10:37:13.984Z,2.83
2022-10-06T10:42:21.885Z,2.78
2022-10-06T10:47:32.794Z,2.53
2022-10-06T10:52:42.279Z,2.20
2022-10-06T10:57:45.979Z,1.88
2022-10-06T11:02:48.355Z,1.85
2022-10-06T11:08:19.102Z,1.48
2022-10-06T11:13:43.764Z,1.73
2022-10-06T11:19:16.255Z,1.13
2022-10-06T11:24:34.094Z,1.13
2022-10-06T11:29:44.182Z,1.20
2022-10-06T11:34:49.617Z,1.10
2022-10-06T11:40:22.956Z,0.70
2022-10-06T11:45:35.499Z,0.63
2022-10-06T11:50:39.060Z,0.65
2022-10-06T11:55:40.542Z,0.80
2022-10-06T12:00:45.128Z,0.75
2022-10-06T12:05:56.208Z,0.55
2022-10-06T12:10:58.355Z,0.80
2022-10-06T12:21:50.642Z,0.70
2022-10-06T12:27:26.241Z,0.80
2022-10-06T12:32:43.604Z,0.75
2022-10-06T12:37:50.107Z,0.60
2022-10-06T12:43:12.378Z,0.70
2022-10-06T12:48:37.168Z,0.65
2022-10-06T12:54:11.291Z,0.65
2022-10-06T12:59:29.516Z,0.50
2022-10-06T13:04:42.972Z,0.75
2022-10-06T13:09:45.877Z,0.80
2022-10-06T13:14:48.220Z,0.50
2022-10-06T13:19:51.165Z,1.05
2022-10-06T13:25:02.159Z,1.50
2022-10-06T13:30:19.544Z,0.60
2022-10-06T13:35:24.434Z,1.70
2022-10-06T13:40:44.173Z,0.60
2022-10-06T13:45:48.387Z,0.80
2022-10-06T13:50:50.228Z,0.50
2022-10-06T13:55:52.474Z,1.15
2022-10-06T14:01:00.895Z,0.60
2022-10-06T14:06:22.217Z,0.60
2022-10-06T14:11:28.075Z,0.90
2022-10-06T14:16:30.091Z,0.90
2022-10-06T14:21:38.750Z,1.10
2022-10-06T14:26:40.583Z,0.50
2022-10-06T14:31:43.647Z,0.40
2022-10-06T14:36:55.075Z,0.65
2022-10-06T14:41:56.629Z,0.40
2022-10-06T14:46:58.201Z,0.60
2022-10-06T14:51:59.828Z,0.68
2022-10-06T14:57:01.658Z,0.50
2022-10-06T15:08:00.212Z,0.30
2022-10-06T15:13:06.332Z,0.50
2022-10-06T15:18:07.823Z,0.50
2022-10-06T15:23:09.574Z,0.60
2022-10-06T15:28:33.049Z,0.50
2022-10-06T15:33:37.535Z,0.70
2022-10-06T15:38:41.288Z,0.38
2022-10-06T15:43:55.163Z,0.32
2022-10-06T15:49:02.637Z,0.70
2022-10-06T15:54:11.023Z,0.57
2022-10-06T15:59:12.511Z,0.50
2022-10-06T16:04:24.880Z,0.50
2022-10-06T16:09:29.999Z,0.47
2022-10-06T16:14:32.249Z,0.50
2022-10-06T16:19:36.896Z,0.90
2022-10-06T16:24:41.268Z,0.47
2022-10-06T16:29:42.960Z,0.40
2022-10-06T16:34:44.429Z,0.93
2022-10-06T16:39:46.865Z,0.70
2022-10-06T16:44:50.723Z,1.00
2022-10-06T16:49:54.538Z,0.65
2022-10-06T16:54:58.368Z,0.47
2022-10-06T17:00:05.734Z,0.60
2022-10-06T17:05:07.341Z,0.60
2022-10-06T17:10:20.227Z,0.90
2022-10-06T17:15:22.357Z,1.05
2022-10-06T17:20:28.568Z,0.70
2022-10-06T17:25:30.114Z,0.80
2022-10-06T17:30:32.783Z,0.50
2022-10-06T17:35:37.347Z,1.00
2022-10-06T17:40:47.919Z,1.40
2022-10-06T17:45:51.910Z,1.80
2022-10-06T17:51:02.037Z,0.82
2022-10-06T17:56:08.096Z,1.10
2022-10-06T18:01:15.017Z,1.00
2022-10-06T18:06:21.429Z,1.48
2022-10-06T18:11:39.654Z,1.50
2022-10-06T18:16:49.864Z,1.35
2022-10-06T18:22:01.994Z,1.10
2022-10-06T18:27:05.853Z,0.88
2022-10-06T18:37:33.445Z,0.90
2022-10-06T18:42:35.142Z,0.80
2022-10-06T18:47:58.646Z,1.50
2022-10-06T18:53:01.253Z,1.10
2022-10-06T18:58:04.520Z,0.80
2022-10-06T19:03:07.238Z,0.93
2022-10-06T19:08:11.878Z,0.75
2022-10-06T19:13:15.915Z,0.90
2022-10-06T19:18:24.379Z,0.82
2022-10-06T19:23:25.930Z,1.10
2022-10-06T19:28:31.918Z,1.00
2022-10-06T19:33:37.790Z,0.80
2022-10-06T19:38:40.562Z,1.23
2022-10-06T19:43:47.382Z,1.20
2022-10-06T19:48:58.346Z,1.30
2022-10-06T19:54:05.234Z,1.40
2022-10-06T19:59:22.472Z,1.25
2022-10-06T20:04:24.529Z,1.38
2022-10-06T20:09:46.575Z,0.95
2022-10-06T20:14:48.089Z,1.35
2022-10-06T20:19:52.813Z,1.33
2022-10-06T20:24:56.856Z,1.38
2022-10-06T20:29:58.449Z,0.90
2022-10-06T20:35:01.889Z,1.20
2022-10-06T20:40:22.190Z,0.98
2022-10-06T20:45:23.937Z,1.20
2022-10-06T20:50:25.832Z,1.08
2022-10-06T20:55:27.362Z,1.42
2022-10-06T21:00:29.285Z,0.90
2022-10-06T21:05:33.280Z,1.02
2022-10-06T21:10:35.033Z,1.15
2022-10-06T21:15:45.246Z,1.05
2022-10-06T21:20:55.379Z,1.20
2022-10-06T21:26:00.653Z,1.20
2022-10-06T21:31:07.784Z,1.10
2022-10-06T21:36:24.344Z,1.30
2022-10-06T21:41:29.604Z,1.00
2022-10-06T21:46:38.719Z,1.30
2022-10-06T21:51:41.831Z,1.27
2022-10-06T21:56:43.802Z,1.30
2022-10-06T22:01:46.781Z,1.05
2022-10-06T22:06:51.880Z,1.27
2022-10-06T22:11:53.585Z,1.30
2022-10-06T22:16:55.290Z,1.30
2022-10-06T22:21:57.019Z,1.27
2022-10-06T22:27:01.561Z,0.90
2022-10-06T22:32:03.328Z,1.42
2022-10-06T22:37:05.843Z,1.15
2022-10-06T22:42:07.635Z,1.17
2022-10-06T22:47:09.374Z,1.60
2022-10-06T22:52:11.108Z,1.00
2022-10-06T22:57:12.774Z,1.33
2022-10-06T23:02:14.494Z,1.00
2022-10-06T23:07:16.205Z,1.00
2022-10-06T23:12:17.966Z,1.10
2022-10-06T23:17:19.665Z,1.08
2022-10-06T23:22:21.416Z,1.27
2022-10-06T23:27:23.190Z,0.80
2022-10-06T23:32:24.881Z,1.02
2022-10-06T23:37:26.629Z,1.05
2022-10-06T23:42:28.351Z,1.13
2022-10-06T23:47:30.092Z,1.27
2022-10-06T23:52:31.790Z,1.52
2022-10-06T23:57:33.552Z,1.15
